createdAt,value
2023-05-02T00:01:31.655Z,9.80
2023-05-02T00:03:58.866Z,10.18
2023-05-02T00:06:26.762Z,10.43
2023-05-02T00:08:53.920Z,10.10
2023-05-02T00:11:21.317Z,10.25
2023-05-02T00:13:48.768Z,10.85
2023-05-02T00:16:16.065Z,11.88
2023-05-02T00:18:43.259Z,11.45
2023-05-02T00:21:10.324Z,11.00
2023-05-02T00:23:37.447Z,10.75
2023-05-02T00:26:09.661Z,10.00
2023-05-02T00:28:40.542Z,9.55
2023-05-02T00:31:07.694Z,10.38
2023-05-02T00:33:34.729Z,10.13
2023-05-02T00:36:01.729Z,10.20
2023-05-02T00:38:29.007Z,9.70
2023-05-02T00:40:56.034Z,10.30
2023-05-02T00:43:23.304Z,10.05
2023-05-02T00:45:51.124Z,9.95
2023-05-02T00:48:20.744Z,10.63
2023-05-02T00:50:47.874Z,9.80
2023-05-02T00:53:15.544Z,10.32
2023-05-02T00:55:42.739Z,9.30
2023-05-02T00:58:14.924Z,8.10
2023-05-02T01:00:59.795Z,8.25
2023-05-02T01:03:46.741Z,9.65
2023-05-02T01:06:29.636Z,9.25
2023-05-02T01:09:13.479Z,9.45
2023-05-02T01:11:52.371Z,9.00
2023-05-02T01:14:21.603Z,9.50
2023-05-02T01:16:50.395Z,10.45
2023-05-02T01:19:27.083Z,9.13
2023-05-02T01:21:55.523Z,9.52
2023-05-02T01:24:29.828Z,8.57
2023-05-02T01:27:22.266Z,8.85
2023-05-02T01:29:52.093Z,9.65
2023-05-02T01:32:22.327Z,9.85
2023-05-02T01:34:52.865Z,10.07
2023-05-02T01:37:22.524Z,10.15
2023-05-02T01:39:51.333Z,9.25
2023-05-02T01:42:20.544Z,10.38
2023-05-02T01:44:49.204Z,11.15
2023-05-02T01:47:17.692Z,10.73
2023-05-02T01:49:45.957Z,10.88
2023-05-02T01:52:15.800Z,9.10
2023-05-02T01:54:43.867Z,9.00
2023-05-02T01:57:12.813Z,10.10
2023-05-02T01:59:41.307Z,8.93
2023-05-02T02:02:11.694Z,8.95
2023-05-02T02:04:40.808Z,9.13
2023-05-02T02:07:13.304Z,9.77
2023-05-02T02:09:41.083Z,10.40
2023-05-02T02:12:29.409Z,11.77
2023-05-02T02:15:16.681Z,12.30
2023-05-02T02:17:49.703Z,11.07
2023-05-02T02:20:17.605Z,9.07
2023-05-02T02:22:46.253Z,9.50
2023-05-02T02:25:16.229Z,10.15
2023-05-02T02:27:44.117Z,10.00
2023-05-02T02:30:11.974Z,10.70
2023-05-02T02:32:39.143Z,12.32
2023-05-02T02:35:07.555Z,10.65
2023-05-02T02:38:01.681Z,13.73
2023-05-02T02:40:30.545Z,12.23
2023-05-02T02:43:00.763Z,11.95
2023-05-02T02:46:00.479Z,12.02
2023-05-02T02:48:38.887Z,12.73
2023-05-02T02:51:15.072Z,13.48
2023-05-02T02:53:53.405Z,13.32
2023-05-02T02:56:28.666Z,12.93
2023-05-02T02:59:02.164Z,13.52
2023-05-02T03:01:32.734Z,10.95
2023-05-02T03:04:04.596Z,11.13
2023-05-02T03:06:31.961Z,11.20
2023-05-02T03:08:59.108Z,12.65
2023-05-02T03:11:29.970Z,10.85
2023-05-02T03:13:58.407Z,13.43
2023-05-02T03:16:38.291Z,12.73
2023-05-02T03:19:09.364Z,11.98
2023-05-02T03:21:36.525Z,12.57
2023-05-02T03:24:10.546Z,13.50
2023-05-02T03:26:37.705Z,12.48
2023-05-02T03:29:07.311Z,10.90
2023-05-02T03:31:39.332Z,12.05
2023-05-02T03:34:07.147Z,12.52
2023-05-02T03:36:35.669Z,11.57
2023-05-02T03:39:02.836Z,12.70
2023-05-02T03:41:30.409Z,11.70
2023-05-02T03:44:04.002Z,13.07
2023-05-02T03:46:31.839Z,11.52
2023-05-02T03:48:59.022Z,13.88
2023-05-02T03:51:26.905Z,12.60
2023-05-02T03:53:56.835Z,12.88
2023-05-02T03:56:24.440Z,12.48
2023-05-02T03:59:01.970Z,13.45
2023-05-02T04:01:29.211Z,13.05
2023-05-02T04:03:58.267Z,11.75
2023-05-02T04:06:27.753Z,11.68
2023-05-02T04:08:59.835Z,11.13
2023-05-02T04:11:33.864Z,11.80
2023-05-02T04:14:02.901Z,11.27
2023-05-02T04:16:30.147Z,11.02
2023-05-02T04:18:57.713Z,11.27
2023-05-02T04:21:25.816Z,11.55
2023-05-02T04:23:52.983Z,11.57
2023-05-02T04:26:20.132Z,11.35
2023-05-02T04:28:53.870Z,12.00
2023-05-02T04:31:21.153Z,13.10
2023-05-02T04:33:53.595Z,12.45
2023-05-02T04:36:26.383Z,12.95
2023-05-02T04:38:53.812Z,13.05
2023-05-02T04:41:21.765Z,13.60
2023-05-02T04:43:54.930Z,10.88
2023-05-02T04:46:23.144Z,12.40
2023-05-02T04:48:50.601Z,12.15
2023-05-02T04:51:17.849Z,11.60
2023-05-02T04:53:48.139Z,11.68
2023-05-02T04:56:15.435Z,10.02
2023-05-02T04:58:42.879Z,10.82
2023-05-02T05:01:12.029Z,11.00
2023-05-02T05:03:40.238Z,10.98
2023-05-02T05:06:08.632Z,10.25
2023-05-02T05:08:35.726Z,9.00
2023-05-02T05:11:05.249Z,8.52
2023-05-02T05:13:33.401Z,10.30
2023-05-02T05:16:00.551Z,9.52
2023-05-02T05:18:31.806Z,9.27
2023-05-02T05:20:58.934Z,9.07
2023-05-02T05:23:26.225Z,8.00
2023-05-02T05:25:53.310Z,10.68
2023-05-02T05:28:20.475Z,10.55
2023-05-02T05:30:47.753Z,10.85
2023-05-02T05:33:19.724Z,10.82
2023-05-02T05:35:47.182Z,9.73
2023-05-02T05:38:14.265Z,9.73
2023-05-02T05:40:44.053Z,9.68
2023-05-02T05:43:12.085Z,10.60
2023-05-02T05:45:40.004Z,10.52
2023-05-02T05:48:07.823Z,10.90
2023-05-02T05:50:41.160Z,10.13
2023-05-02T05:53:08.283Z,11.30
2023-05-02T05:55:39.642Z,10.43
2023-05-02T05:58:08.953Z,13.05
2023-05-02T06:00:38.635Z,14.35
2023-05-02T06:03:09.595Z,12.35
2023-05-02T06:05:37.960Z,13.95
2023-05-02T06:08:05.091Z,13.50
2023-05-02T06:10:32.988Z,12.65
2023-05-02T06:13:00.361Z,12.55
2023-05-02T06:15:35.234Z,12.70
2023-05-02T06:18:04.579Z,14.82
2023-05-02T06:20:31.662Z,16.73
2023-05-02T06:22:59.420Z,14.43
2023-05-02T06:25:26.413Z,15.65
2023-05-02T06:27:53.604Z,17.05
2023-05-02T06:30:20.977Z,13.50
2023-05-02T06:32:48.040Z,14.05
2023-05-02T06:35:15.392Z,14.25
2023-05-02T06:37:42.438Z,13.60
2023-05-02T06:40:10.291Z,14.27
2023-05-02T06:42:37.318Z,13.75
2023-05-02T06:45:04.795Z,13.43
2023-05-02T06:47:33.154Z,13.68
2023-05-02T06:50:00.629Z,15.60
2023-05-02T06:52:29.604Z,16.05
2023-05-02T06:54:57.066Z,14.95
2023-05-02T06:57:25.126Z,15.73
2023-05-02T06:59:52.271Z,14.75
2023-05-02T07:02:19.219Z,14.43
2023-05-02T07:04:46.921Z,15.35
2023-05-02T07:07:15.839Z,15.35
2023-05-02T07:09:44.067Z,15.73
2023-05-02T07:12:11.131Z,14.30
2023-05-02T07:14:38.156Z,15.32
2023-05-02T07:17:05.512Z,13.85
2023-05-02T07:19:32.778Z,15.48
2023-05-02T07:22:00.031Z,16.17
2023-05-02T07:24:27.129Z,14.45
2023-05-02T07:26:54.340Z,12.32
2023-05-02T07:29:21.375Z,10.18
2023-05-02T07:31:48.719Z,10.85
2023-05-02T07:34:15.870Z,11.07
2023-05-02T07:36:43.021Z,9.40
2023-05-02T07:39:10.447Z,9.65
2023-05-02T07:41:37.541Z,8.90
2023-05-02T07:44:04.672Z,9.05
2023-05-02T07:46:31.798Z,8.68
2023-05-02T07:48:58.923Z,8.95
2023-05-02T07:51:26.984Z,9.45
2023-05-02T07:53:55.975Z,9.93
2023-05-02T07:56:22.986Z,8.95
2023-05-02T07:58:51.707Z,7.85
2023-05-02T08:01:19.010Z,8.05
2023-05-02T08:03:47.330Z,7.93
2023-05-02T08:06:14.666Z,8.63
2023-05-02T08:08:41.861Z,8.02
2023-05-02T08:11:08.949Z,8.48
2023-05-02T08:13:36.186Z,7.68
2023-05-02T08:16:03.304Z,7.75
2023-05-02T08:18:30.420Z,7.80
2023-05-02T08:20:58.928Z,7.32
2023-05-02T08:23:25.974Z,7.80
2023-05-02T08:25:53.260Z,8.38
2023-05-02T08:28:20.257Z,8.15
2023-05-02T08:30:47.385Z,8.73
2023-05-02T08:33:17.769Z,8.68
2023-05-02T08:35:44.882Z,9.52
2023-05-02T08:38:12.073Z,9.68
2023-05-02T08:40:42.850Z,9.20
2023-05-02T08:43:12.288Z,8.98
2023-05-02T08:45:42.403Z,8.90
2023-05-02T08:48:15.154Z,8.85
2023-05-02T08:50:46.761Z,9.10
2023-05-02T08:53:14.857Z,10.50
2023-05-02T08:55:43.173Z,10.50
2023-05-02T08:58:13.271Z,9.98
2023-05-02T09:00:42.416Z,9.85
2023-05-02T09:03:24.092Z,10.75
2023-05-02T09:05:57.213Z,11.00
2023-05-02T09:08:25.073Z,10.70
2023-05-02T09:10:52.141Z,9.75
2023-05-02T09:13:38.360Z,8.73
2023-05-02T09:16:12.713Z,10.23
2023-05-02T09:18:46.943Z,9.65
2023-05-02T09:21:21.263Z,9.75
2023-05-02T09:23:53.964Z,9.52
2023-05-02T09:26:35.395Z,8.88
2023-05-02T09:29:05.555Z,8.45
2023-05-02T09:34:12.122Z,7.72
2023-05-02T09:36:43.304Z,7.30
2023-05-02T09:39:13.823Z,7.35
2023-05-02T09:41:48.514Z,7.03
2023-05-02T09:44:21.431Z,7.25
2023-05-02T09:46:54.173Z,7.40
2023-05-02T09:49:46.345Z,7.00
2023-05-02T09:52:16.066Z,7.15
2023-05-02T09:54:47.529Z,8.95
2023-05-02T09:57:15.097Z,7.55
2023-05-02T09:59:52.915Z,8.48
2023-05-02T10:02:22.170Z,8.95
2023-05-02T10:04:51.733Z,8.32
2023-05-02T10:07:21.406Z,8.23
2023-05-02T10:09:52.843Z,8.48
2023-05-02T10:12:25.003Z,9.07
2023-05-02T10:15:00.576Z,9.48
2023-05-02T10:17:49.597Z,8.50
2023-05-02T10:20:23.446Z,8.75
2023-05-02T10:22:52.068Z,9.30
2023-05-02T10:25:19.515Z,9.93
2023-05-02T10:27:46.855Z,10.43
2023-05-02T10:30:14.985Z,9.07
2023-05-02T10:32:43.979Z,8.45
2023-05-02T10:35:12.075Z,8.52
2023-05-02T10:37:41.317Z,9.50
2023-05-02T10:40:12.810Z,10.00
2023-05-02T10:42:43.836Z,11.23
2023-05-02T10:45:36.987Z,13.13
2023-05-02T10:48:22.964Z,10.88
2023-05-02T10:50:55.916Z,12.77
2023-05-02T10:53:37.025Z,11.88
2023-05-02T10:56:22.748Z,15.63
2023-05-02T10:58:51.533Z,13.32
2023-05-02T11:01:36.471Z,14.38
2023-05-02T11:04:08.544Z,15.45
2023-05-02T11:06:38.233Z,16.48
2023-05-02T11:09:32.385Z,16.33
2023-05-02T11:11:59.727Z,16.88
2023-05-02T11:14:28.139Z,16.42
2023-05-02T11:17:00.783Z,16.52
2023-05-02T11:19:31.444Z,14.88
2023-05-02T11:22:22.031Z,16.77
2023-05-02T11:24:51.173Z,15.70
2023-05-02T11:27:30.519Z,15.88
2023-05-02T11:29:57.743Z,13.95
2023-05-02T11:32:27.526Z,16.88
2023-05-02T11:34:56.151Z,15.90
2023-05-02T11:37:23.221Z,15.43
2023-05-02T11:39:51.704Z,15.55
2023-05-02T11:42:32.638Z,11.57
2023-05-02T11:45:01.593Z,11.52
2023-05-02T11:47:29.752Z,11.75
2023-05-02T11:49:58.000Z,13.20
2023-05-02T11:52:25.110Z,13.73
2023-05-02T11:54:56.990Z,12.75
2023-05-02T11:57:24.218Z,12.65
2023-05-02T11:59:55.340Z,13.60
2023-05-02T12:02:39.366Z,16.40
2023-05-02T12:05:08.260Z,8.02
2023-05-02T12:07:39.838Z,3.10
2023-05-02T12:10:08.470Z,2.63
2023-05-02T12:12:36.379Z,2.03
2023-05-02T12:15:08.631Z,2.05
2023-05-02T12:17:40.846Z,2.03
2023-05-02T12:20:12.655Z,1.50
2023-05-02T12:22:40.048Z,1.95
2023-05-02T12:25:07.951Z,1.52
2023-05-02T12:27:35.415Z,1.50
2023-05-02T12:30:02.960Z,1.15
2023-05-02T12:32:35.748Z,1.50
2023-05-02T12:35:04.031Z,1.27
2023-05-02T12:37:31.241Z,1.17
2023-05-02T12:39:58.497Z,1.13
2023-05-02T12:42:26.988Z,1.70
2023-05-02T12:44:54.157Z,1.42
2023-05-02T12:47:23.058Z,1.60
2023-05-02T12:49:59.300Z,1.60
2023-05-02T12:52:50.070Z,1.48
2023-05-02T12:55:20.020Z,1.50
2023-05-02T12:57:47.662Z,2.00
2023-05-02T13:00:18.379Z,2.17
2023-05-02T13:02:45.505Z,2.67
2023-05-02T13:05:16.708Z,2.55
2023-05-02T13:07:44.077Z,2.22
2023-05-02T13:10:12.311Z,2.00
2023-05-02T13:12:40.255Z,2.40
2023-05-02T13:15:09.094Z,2.40
2023-05-02T13:17:36.372Z,1.88
2023-05-02T13:20:03.835Z,2.00
2023-05-02T13:22:31.318Z,3.10
2023-05-02T13:24:58.364Z,2.20
2023-05-02T13:27:25.911Z,2.83
2023-05-02T13:29:53.142Z,2.75
2023-05-02T13:32:20.615Z,1.25
2023-05-02T13:34:48.213Z,1.35
2023-05-02T13:37:15.606Z,1.20
2023-05-02T13:39:42.695Z,1.35
2023-05-02T13:42:10.013Z,1.30
2023-05-02T13:44:37.010Z,4.28
2023-05-02T13:47:04.300Z,3.63
2023-05-02T13:49:31.700Z,2.22
2023-05-02T13:51:58.792Z,2.15
2023-05-02T13:54:26.335Z,2.50
2023-05-02T13:56:53.557Z,2.88
2023-05-02T13:59:20.570Z,2.38
2023-05-02T14:01:47.773Z,2.17
2023-05-02T14:04:15.051Z,1.63
2023-05-02T14:06:42.340Z,1.92
2023-05-02T14:09:10.008Z,1.98
2023-05-02T14:11:37.232Z,2.47
2023-05-02T14:14:04.260Z,2.15
2023-05-02T14:16:31.515Z,2.63
2023-05-02T14:18:59.039Z,3.20
2023-05-02T14:21:26.192Z,3.08
2023-05-02T14:23:53.177Z,3.40
2023-05-02T14:26:20.575Z,2.55
2023-05-02T14:28:47.634Z,3.70
2023-05-02T14:31:14.921Z,2.78
2023-05-02T14:33:43.588Z,3.90
2023-05-02T14:36:10.727Z,3.55
2023-05-02T14:38:37.795Z,3.53
2023-05-02T14:41:06.070Z,3.03
2023-05-02T14:43:33.196Z,3.60
2023-05-02T14:46:00.235Z,3.22
2023-05-02T14:48:27.416Z,4.97
2023-05-02T14:50:54.409Z,5.57
2023-05-02T14:53:21.650Z,3.83
2023-05-02T14:55:48.677Z,3.10
2023-05-02T14:58:20.776Z,3.20
2023-05-02T15:00:48.311Z,4.05
2023-05-02T15:03:15.728Z,3.92
2023-05-02T15:05:43.029Z,3.38
2023-05-02T15:08:10.218Z,2.58
2023-05-02T15:10:38.401Z,2.78
2023-05-02T15:13:06.182Z,1.90
2023-05-02T15:15:33.337Z,2.38
2023-05-02T15:18:00.484Z,2.42
2023-05-02T15:20:27.642Z,1.85
2023-05-02T15:22:54.826Z,3.15
2023-05-02T15:25:21.910Z,3.72
2023-05-02T15:27:48.956Z,1.92
2023-05-02T15:30:17.887Z,2.30
2023-05-02T15:32:45.133Z,3.08
2023-05-02T15:35:12.687Z,2.58
2023-05-02T15:37:39.782Z,2.17
2023-05-02T15:40:07.855Z,2.05
2023-05-02T15:42:37.261Z,1.67
2023-05-02T15:45:04.857Z,1.38
2023-05-02T15:47:32.801Z,1.75
2023-05-02T15:50:00.647Z,3.28
2023-05-02T15:52:27.951Z,2.15
2023-05-02T15:54:56.283Z,3.70
2023-05-02T15:57:23.416Z,2.90
2023-05-02T15:59:50.431Z,2.22
2023-05-02T16:02:17.637Z,2.60
2023-05-02T16:04:44.707Z,2.05
2023-05-02T16:07:11.847Z,1.88
2023-05-02T16:09:39.941Z,2.50
2023-05-02T16:12:07.468Z,1.92
2023-05-02T16:14:35.024Z,2.05
2023-05-02T16:17:06.437Z,2.55
2023-05-02T16:19:33.723Z,1.73
2023-05-02T16:22:01.499Z,2.50
2023-05-02T16:24:28.987Z,1.67
2023-05-02T16:26:56.639Z,2.03
2023-05-02T16:29:24.315Z,2.65
2023-05-02T16:31:51.730Z,2.25
2023-05-02T16:34:19.145Z,2.20
2023-05-02T16:36:47.122Z,2.10
2023-05-02T16:39:14.571Z,2.00
2023-05-02T16:41:42.436Z,1.70
2023-05-02T16:44:10.764Z,1.60
2023-05-02T16:46:38.311Z,2.03
2023-05-02T16:49:06.901Z,1.90
2023-05-02T16:51:34.251Z,1.58
2023-05-02T16:54:01.501Z,2.15
2023-05-02T16:56:29.545Z,2.00
2023-05-02T16:58:56.688Z,1.50
2023-05-02T17:01:25.115Z,1.40
2023-05-02T17:03:52.412Z,1.50
2023-05-02T17:06:19.566Z,1.50
2023-05-02T17:08:46.884Z,1.58
2023-05-02T17:11:13.918Z,1.50
2023-05-02T17:13:42.535Z,1.65
2023-05-02T17:16:10.039Z,1.60
2023-05-02T17:18:37.404Z,1.98
2023-05-02T17:21:04.793Z,1.70
2023-05-02T17:23:31.810Z,1.90
2023-05-02T17:25:59.046Z,1.85
2023-05-02T17:28:26.090Z,1.90
2023-05-02T17:30:54.814Z,1.80
2023-05-02T17:33:22.384Z,1.98
2023-05-02T17:35:49.546Z,1.83
2023-05-02T17:38:16.666Z,2.05
2023-05-02T17:40:43.736Z,2.20
2023-05-02T17:43:11.168Z,2.20
2023-05-02T17:45:39.656Z,2.20
2023-05-02T17:48:06.851Z,1.58
2023-05-02T17:50:40.960Z,2.13
2023-05-02T17:53:08.663Z,2.33
2023-05-02T17:55:39.480Z,3.22
2023-05-02T17:58:06.875Z,2.95
2023-05-02T18:00:34.016Z,6.50
2023-05-02T18:03:01.249Z,4.43
2023-05-02T18:05:28.299Z,4.45
2023-05-02T18:07:56.143Z,4.72
2023-05-02T18:10:23.150Z,4.32
2023-05-02T18:12:50.580Z,3.50
2023-05-02T18:15:17.748Z,2.03
2023-05-02T18:17:44.808Z,1.88
2023-05-02T18:20:12.333Z,1.58
2023-05-02T18:22:40.115Z,2.20
2023-05-02T18:25:07.801Z,1.75
2023-05-02T18:27:35.164Z,2.42
2023-05-02T18:30:02.619Z,2.40
2023-05-02T18:32:31.607Z,2.70
2023-05-02T18:34:58.771Z,2.88
2023-05-02T18:37:31.809Z,3.13
2023-05-02T18:39:59.224Z,2.88
2023-05-02T18:42:26.732Z,2.72
2023-05-02T18:44:54.008Z,4.85
2023-05-02T18:47:21.780Z,2.90
2023-05-02T18:49:50.370Z,3.28
2023-05-02T18:52:17.587Z,3.72
2023-05-02T18:54:44.725Z,3.35
2023-05-02T18:57:12.779Z,2.85
2023-05-02T18:59:39.837Z,3.22
2023-05-02T19:02:07.397Z,3.28
2023-05-02T19:04:34.596Z,3.72
2023-05-02T19:07:01.772Z,3.47
2023-05-02T19:09:29.016Z,3.13
2023-05-02T19:11:56.002Z,4.28
2023-05-02T19:14:23.322Z,3.08
2023-05-02T19:16:51.098Z,2.35
2023-05-02T19:19:18.716Z,2.80
2023-05-02T19:21:47.147Z,2.67
2023-05-02T19:24:14.309Z,2.85
2023-05-02T19:26:42.159Z,2.58
2023-05-02T19:29:09.491Z,2.00
2023-05-02T19:31:37.106Z,2.53
2023-05-02T19:34:04.199Z,1.83
2023-05-02T19:36:32.381Z,1.73
2023-05-02T19:38:59.550Z,2.75
2023-05-02T19:41:26.797Z,2.15
2023-05-02T19:43:55.790Z,1.88
2023-05-02T19:46:23.141Z,2.40
2023-05-02T19:48:50.587Z,2.20
2023-05-02T19:51:27.592Z,2.88
2023-05-02T19:53:56.972Z,2.47
2023-05-02T19:56:25.842Z,2.65
2023-05-02T19:58:54.132Z,2.38
2023-05-02T20:01:21.736Z,2.53
2023-05-02T20:03:49.153Z,2.33
2023-05-02T20:06:16.570Z,2.35
2023-05-02T20:08:43.679Z,1.88
2023-05-02T20:11:11.108Z,2.72
2023-05-02T20:13:38.521Z,2.75
2023-05-02T20:16:05.893Z,2.08
2023-05-02T20:18:33.003Z,2.63
2023-05-02T20:21:00.566Z,2.63
2023-05-02T20:23:27.968Z,2.40
2023-05-02T20:25:55.761Z,2.35
2023-05-02T20:28:22.887Z,3.10
2023-05-02T20:30:50.780Z,2.50
2023-05-02T20:33:19.493Z,2.35
2023-05-02T20:35:56.060Z,2.10
2023-05-02T20:38:24.395Z,2.13
2023-05-02T20:40:51.676Z,2.33
2023-05-02T20:43:19.084Z,2.00
2023-05-02T20:45:47.316Z,2.45
2023-05-02T20:48:18.368Z,2.70
2023-05-02T20:50:54.965Z,2.05
2023-05-02T20:53:23.933Z,1.85
2023-05-02T20:55:51.500Z,2.10
2023-05-02T20:58:18.566Z,2.17
2023-05-02T21:00:52.719Z,2.65
2023-05-02T21:03:20.699Z,2.30
2023-05-02T21:05:52.862Z,2.35
2023-05-02T21:08:21.964Z,2.10
2023-05-02T21:10:49.247Z,2.63
2023-05-02T21:13:16.572Z,2.08
2023-05-02T21:15:43.796Z,1.73
2023-05-02T21:18:11.628Z,1.88
2023-05-02T21:20:41.642Z,2.55
2023-05-02T21:23:12.313Z,2.47
2023-05-02T21:25:39.771Z,2.38
2023-05-02T21:28:06.812Z,2.13
2023-05-02T21:30:34.002Z,2.67
2023-05-02T21:33:01.061Z,2.47
2023-05-02T21:35:28.964Z,2.30
2023-05-02T21:37:56.023Z,2.80
2023-05-02T21:40:23.126Z,2.90
2023-05-02T21:42:50.175Z,2.78
2023-05-02T21:45:17.460Z,3.38
2023-05-02T21:47:44.656Z,3.47
2023-05-02T21:50:11.777Z,3.00
2023-05-02T21:52:38.970Z,2.88
2023-05-02T21:55:06.435Z,3.00
2023-05-02T21:57:33.537Z,2.55
2023-05-02T22:00:00.919Z,2.60
2023-05-02T22:02:28.602Z,2.90
2023-05-02T22:04:57.931Z,2.90
2023-05-02T22:07:25.219Z,2.90
2023-05-02T22:09:52.614Z,2.92
2023-05-02T22:12:25.682Z,3.10
2023-05-02T22:14:52.808Z,2.88
2023-05-02T22:17:21.753Z,2.78
2023-05-02T22:19:50.277Z,2.80
2023-05-02T22:22:17.286Z,2.80
2023-05-02T22:24:44.392Z,2.45
2023-05-02T22:27:11.441Z,2.47
2023-05-02T22:29:38.573Z,2.42
2023-05-02T22:32:06.029Z,2.50
2023-05-02T22:34:33.407Z,2.63
2023-05-02T22:37:00.537Z,2.80
2023-05-02T22:39:27.900Z,3.10
2023-05-02T22:41:54.914Z,3.05
2023-05-02T22:44:21.946Z,3.40
2023-05-02T22:46:49.161Z,2.67
2023-05-02T22:49:16.515Z,2.80
2023-05-02T22:51:45.420Z,3.75
2023-05-02T22:54:15.153Z,3.80
2023-05-02T22:56:42.322Z,3.20
2023-05-02T22:59:10.036Z,3.55
2023-05-02T23:01:37.252Z,3.85
2023-05-02T23:04:04.554Z,6.75
2023-05-02T23:06:31.892Z,6.20
2023-05-02T23:08:58.914Z,6.72
2023-05-02T23:11:26.115Z,6.55
2023-05-02T23:13:53.178Z,7.93
2023-05-02T23:16:20.415Z,8.18
2023-05-02T23:18:47.797Z,8.13
2023-05-02T23:21:16.372Z,8.70
2023-05-02T23:23:43.573Z,7.45
2023-05-02T23:26:11.151Z,7.43
2023-05-02T23:28:38.970Z,7.45
2023-05-02T23:31:07.106Z,7.13
2023-05-02T23:33:36.120Z,6.63
2023-05-02T23:36:03.948Z,7.72
2023-05-02T23:38:31.740Z,6.38
2023-05-02T23:40:59.011Z,6.32
2023-05-02T23:43:26.491Z,6.75
2023-05-02T23:45:53.501Z,5.57
2023-05-02T23:48:20.561Z,6.47
2023-05-02T23:50:47.882Z,6.22
2023-05-02T23:53:14.848Z,6.35
2023-05-02T23:55:42.018Z,7.13
2023-05-02T23:58:08.981Z,8.40
